Linn, Kansas
Current Conditions -  °F | °C
As of 3:55 AM on Friday 31 Oct 2014 (Local Time) from KMYZ Reporting Station
Overcast Overcast  
Wind Chill: 27°   Ceiling: 2600
Heat Index: 37°   Visibility: 10mi
Dew Point: 32°   Wind: 20mph
Humidity: 81%   Direction: 360°N
Pressure: 30.41"   Gusts: 24mph
Location:  39.68°N, 97.08°W
Report Text: KMYZ 310855Z AUTO 36017G21KT 10SM OVC026 03/00 A3041 RMK AO2
Loading
Personal Weather Stations






























Interactive Weather Map
Tropical Storm Tracking
New forecast layout! Learn more

10-Day Weather Forecast

Advertisements
Track Severe Weather on mobile